map of CBH home
CBH - Airport
Location
City:  Béchar, Béchar, Algeria
Name:Boudghene Ben Ali Lotfi
Old (Alt.):Leger
ICAO:DAOR
IATA:CBH

Details
Type:Airport (Aerodrome, Airfield)
Use:Public/Civil, International (customs port of entry)
Latitude:31°39'02"N (31.650569)
Longitude:2°15'11"W (-2.253152)
Elevation:2661 ft (811 m)
Variation:0.37°W (WMM2015 magnetic declination)
0.10° annual change
Runways:2
Longest:10942 × 148 ft (3335 × 45 m)

Time
Time Zone:UTC+1
Local Time:

Weather
METAR:DAOR 130700Z 01005KT 9999 FEW033 04/03 Q1023

Related Locations
Nearby:
Farthest:KKE: 12103 mi / 19478 km
Kerikeri/Bay of Islands, NTL, NZ

Find:

   beyond  
but within

Other Information
Maps:
NOTAMs:
Links:
Sources:

  
flag of Algeria   

Sectional Chart

Flight Planning
at skyvector.com

Satellite Image

Google Maps Satellite view

 

Copyright © 2004-2017 Karl L. Swartz. All rights reserved.
The Great Circle Mapper name and logo are trademarks of the Great Circle Mapper.
All other trademarks mentioned herein belong to their respective owners.
Please see credits for attibutions and further copyright information.

  Follow gcmap on Facebook Follow gcmap on Twitter Follow gcmap on Google+ GCmap on LinkedIn

hCard Microformat

Geo Microformat